Time;durP1;ratioP1;P1;durP2;ratioP2;P2;SDS_P1;SDS_P2;PMS_P1;PMS_P2;Temp;Humidity;BMP_temperature;BMP_pressure;BME280_temperature;BME280_humidity;BME280_pressure;Samples;Min_cycle;Max_cycle;Signal;HPM_P1;HPM_P2
2022/05/10 00:01:37;;;;;;;3.78;2.60;;;;;;;15.20;100.00;100685.28;5072361;28;20202;-72
2022/05/10 00:04:06;;;;;;;3.15;2.85;;;;;;;15.19;100.00;100683.56;5073049;28;20207;-71
2022/05/10 00:06:37;;;;;;;4.78;2.78;;;;;;;15.10;100.00;100667.81;5073058;28;20203;-71
2022/05/10 00:09:04;;;;;;;9.07;2.42;;;;;;;15.09;100.00;100684.34;5073106;28;20199;-72
2022/05/10 00:11:31;;;;;;;5.57;2.80;;;;;;;14.77;100.00;100659.75;5073666;28;20222;-72
2022/05/10 00:13:58;;;;;;;2.20;2.00;;;;;;;14.84;98.52;100669.38;5073214;28;20198;-71
2022/05/10 00:16:26;;;;;;;4.43;2.60;;;;;;;14.99;95.13;100677.34;5073024;28;20203;-71
2022/05/10 00:18:54;;;;;;;3.08;2.33;;;;;;;14.77;93.27;100647.59;5073002;28;20616;-71
2022/05/10 00:21:24;;;;;;;2.53;2.33;;;;;;;14.95;92.64;100678.16;5053489;28;20195;-72
2022/05/10 00:23:51;;;;;;;3.90;2.75;;;;;;;14.78;92.48;100669.34;5072987;28;20199;-72
2022/05/10 00:26:18;;;;;;;2.55;2.35;;;;;;;14.78;89.69;100656.28;5073060;28;20203;-71
2022/05/10 00:28:46;;;;;;;1.80;1.70;;;;;;;14.56;86.67;100626.56;5072666;28;20202;-71
2022/05/10 00:31:14;;;;;;;2.58;1.70;;;;;;;14.66;83.98;100646.63;5072229;28;20230;-71
2022/05/10 00:33:42;;;;;;;1.80;1.70;;;;;;;14.81;80.94;100662.41;5057144;28;20206;-71
2022/05/10 00:36:12;;;;;;;2.45;2.13;;;;;;;14.89;81.95;100657.25;5073260;28;20213;-71
2022/05/10 00:38:41;;;;;;;4.35;2.47;;;;;;;14.68;85.54;100625.78;5072834;28;20230;-71
2022/05/10 00:41:15;;;;;;;3.40;2.22;;;;;;;14.75;90.96;100656.28;5072249;28;20713;-72
2022/05/10 00:43:47;;;;;;;7.05;3.03;;;;;;;14.75;95.92;100661.50;5072741;28;20198;-72
2022/05/10 00:46:19;;;;;;;4.90;2.58;;;;;;;14.79;100.00;100658.94;5072660;28;20214;-72
2022/05/10 00:48:53;;;;;;;3.08;2.78;;;;;;;14.72;100.00;100664.09;5072460;28;20199;-71
2022/05/10 00:51:31;;;;;;;4.72;3.00;;;;;;;14.56;100.00;100662.22;5072796;28;20229;-72
2022/05/10 00:54:03;;;;;;;4.00;3.10;;;;;;;14.30;100.00;100655.00;5072376;28;20214;-72
2022/05/10 00:56:38;;;;;;;4.80;3.10;;;;;;;14.25;100.00;100630.63;5072496;28;20210;-71
2022/05/10 00:59:13;;;;;;;5.80;3.17;;;;;;;14.29;100.00;100658.50;5072304;28;20199;-72
2022/05/10 01:01:43;;;;;;;5.82;3.10;;;;;;;14.38;100.00;100655.97;5072121;28;20195;-71
2022/05/10 01:04:19;;;;;;;6.93;3.20;;;;;;;14.38;100.00;100635.09;5072681;28;20211;-72
2022/05/10 01:06:51;;;;;;;5.60;3.65;;;;;;;14.44;100.00;100638.63;5072021;28;20198;-71
2022/05/10 01:09:27;;;;;;;5.95;3.33;;;;;;;14.33;100.00;100613.31;5071978;28;20203;-71
2022/05/10 01:12:01;;;;;;;6.93;3.40;;;;;;;14.41;100.00;100647.31;5072827;28;20225;-71
2022/05/10 01:14:33;;;;;;;5.15;3.00;;;;;;;14.39;100.00;100636.88;5038376;28;20202;-71
2022/05/10 01:16:59;;;;;;;7.88;3.33;;;;;;;14.29;100.00;100635.00;5072351;28;20202;-71
2022/05/10 01:19:28;;;;;;;5.93;3.35;;;;;;;14.22;100.00;100622.78;5071504;28;20214;-71
2022/05/10 01:22:10;;;;;;;8.38;3.00;;;;;;;14.37;100.00;100641.22;5072386;28;20203;-71
2022/05/10 01:25:01;;;;;;;3.08;2.63;;;;;;;14.31;100.00;100633.28;5072022;28;20709;-71
2022/05/10 01:27:48;;;;;;;7.35;3.28;;;;;;;14.28;100.00;100637.59;5071775;28;20225;-71
2022/05/10 01:30:18;;;;;;;5.82;2.85;;;;;;;13.97;100.00;100594.72;5071858;28;20226;-71
2022/05/10 01:35:42;;;;;;;3.63;3.33;;;;;;;14.09;100.00;100610.47;5056343;28;20205;-71
2022/05/10 01:38:22;;;;;;;5.07;2.95;;;;;;;14.18;100.00;100631.44;5071460;28;21009;-71
2022/05/10 01:40:52;;;;;;;6.28;2.65;;;;;;;14.25;100.00;100632.34;5071475;28;20202;-71
2022/05/10 01:43:27;;;;;;;4.38;3.20;;;;;;;13.98;100.00;100595.59;5071746;28;20197;-71
2022/05/10 01:46:01;;;;;;;5.32;2.95;;;;;;;14.20;100.00;100631.41;5036539;28;20203;-71
2022/05/10 01:48:28;;;;;;;3.88;2.85;;;;;;;14.09;100.00;100627.88;5071608;28;20195;-72
2022/05/10 01:50:58;;;;;;;2.83;2.63;;;;;;;14.03;100.00;100604.31;5071559;28;20234;-71
2022/05/10 01:53:31;;;;;;;4.38;2.85;;;;;;;13.98;100.00;100622.56;5071026;28;20290;-71
2022/05/10 01:56:02;;;;;;;3.00;2.67;;;;;;;14.03;100.00;100626.06;5067423;28;20207;-71
2022/05/10 01:58:31;;;;;;;4.78;3.05;;;;;;;14.13;100.00;100617.47;5071318;28;20260;-72
2022/05/10 02:01:02;;;;;;;5.10;2.70;;;;;;;14.31;100.00;100643.72;5069997;28;20566;-71
2022/05/10 02:03:34;;;;;;;5.50;3.40;;;;;;;14.15;100.00;100641.84;5071302;28;20198;-72
2022/05/10 02:06:09;;;;;;;5.57;3.28;;;;;;;13.96;100.00;100650.31;5071707;28;20195;-71
2022/05/10 02:08:43;;;;;;;3.97;3.53;;;;;;;14.04;100.00;100643.47;5071256;28;20585;-71
2022/05/10 02:11:12;;;;;;;4.20;3.33;;;;;;;13.73;100.00;100639.63;5071215;28;20218;-72
2022/05/10 02:13:46;;;;;;;4.10;3.20;;;;;;;13.82;100.00;100651.91;5071275;28;20194;-72
2022/05/10 02:16:21;;;;;;;7.05;3.53;;;;;;;13.61;100.00;100633.44;5070698;28;20213;-71
2022/05/10 02:18:56;;;;;;;5.07;3.20;;;;;;;13.67;100.00;100651.72;5071031;28;20205;-71
2022/05/10 02:21:27;;;;;;;5.28;3.80;;;;;;;13.59;100.00;100653.41;5070730;28;20226;-71
2022/05/10 02:24:01;;;;;;;4.55;3.42;;;;;;;13.24;100.00;100567.00;5070481;28;20191;-71
2022/05/10 02:26:31;;;;;;;7.05;3.22;;;;;;;13.62;100.00;100635.19;5070285;28;20206;-71
2022/05/10 02:29:07;;;;;;;3.70;2.88;;;;;;;13.52;100.00;100643.75;5070697;28;20202;-66
2022/05/10 02:34:23;;;;;;;4.93;3.50;;;;;;;13.39;100.00;100609.72;5070316;28;20329;-71
2022/05/10 02:36:50;;;;;;;10.75;3.67;;;;;;;13.43;100.00;100615.84;5070481;28;20195;-71
2022/05/10 02:39:17;;;;;;;9.38;3.50;;;;;;;13.52;100.00;100638.56;5070470;28;20241;-71
2022/05/10 02:41:44;;;;;;;4.90;3.63;;;;;;;13.56;100.00;100645.50;5060146;28;20191;-71
2022/05/10 02:44:10;;;;;;;6.35;3.35;;;;;;;13.49;100.00;100625.47;5070746;28;20202;-71
2022/05/10 02:46:39;;;;;;;6.75;3.78;;;;;;;13.64;100.00;100646.50;5070598;28;20203;-71
2022/05/10 02:49:05;;;;;;;4.80;3.45;;;;;;;13.59;100.00;100643.81;5070401;28;20202;-71
2022/05/10 02:51:32;;;;;;;9.60;4.07;;;;;;;13.64;100.00;100638.66;5070371;28;20231;-71
2022/05/10 02:53:59;;;;;;;4.20;3.45;;;;;;;13.37;100.00;100577.59;5069590;28;20206;-71
2022/05/10 02:56:29;;;;;;;2.67;2.30;;;;;;;13.58;100.00;100602.13;5070223;28;20289;-71
2022/05/10 02:59:00;;;;;;;5.60;2.45;;;;;;;13.79;100.00;100637.13;5070200;28;20217;-71
2022/05/10 03:01:34;;;;;;;3.13;2.83;;;;;;;13.13;100.00;100628.47;5070144;28;20217;-71
2022/05/10 03:04:03;;;;;;;3.42;3.13;;;;;;;13.22;100.00;100670.28;5069950;28;20747;-71
2022/05/10 03:06:31;;;;;;;7.18;3.20;;;;;;;13.19;100.00;100652.88;5069761;28;20210;-71
2022/05/10 03:08:59;;;;;;;7.88;3.53;;;;;;;13.28;100.00;100662.53;5069969;28;20206;-71
2022/05/10 03:11:26;;;;;;;5.60;3.22;;;;;;;13.24;100.00;100653.81;5070398;28;20222;-71
2022/05/10 03:13:54;;;;;;;12.13;3.97;;;;;;;13.29;100.00;100665.16;5035666;28;20283;-71
2022/05/10 03:16:21;;;;;;;16.20;4.00;;;;;;;12.91;100.00;100593.47;5072420;28;20225;-71
2022/05/10 03:18:48;;;;;;;5.07;3.20;;;;;;;13.11;100.00;100631.06;5073494;28;20203;-71
2022/05/10 03:21:17;;;;;;;6.07;3.50;;;;;;;13.34;100.00;100693.91;5073005;28;20636;-71
2022/05/10 03:23:43;;;;;;;5.57;3.03;;;;;;;13.15;100.00;100681.47;5073380;28;20673;-71
2022/05/10 03:26:12;;;;;;;6.90;3.00;;;;;;;13.17;100.00;100665.00;5074559;28;20203;-71
2022/05/10 03:28:39;;;;;;;3.08;2.88;;;;;;;12.99;100.00;100677.72;5074084;28;20194;-71
2022/05/10 03:31:12;;;;;;;6.80;3.67;;;;;;;13.39;100.00;100702.63;5073993;28;20226;-71
2022/05/10 03:33:38;;;;;;;5.03;3.03;;;;;;;13.63;100.00;100682.09;5074126;28;20199;-71
2022/05/10 03:36:06;;;;;;;5.85;3.28;;;;;;;14.01;100.00;100674.72;5074001;28;20202;-71
2022/05/10 03:38:36;;;;;;;9.18;4.18;;;;;;;14.33;100.00;100670.69;5074056;28;20226;-71
2022/05/10 03:41:02;;;;;;;6.85;3.85;;;;;;;14.92;100.00;100682.50;5073527;28;20214;-71
2022/05/10 03:43:29;;;;;;;6.10;3.20;;;;;;;15.47;96.90;100674.13;5073613;28;20609;-71
2022/05/10 03:45:57;;;;;;;10.30;3.45;;;;;;;15.41;92.26;100628.81;5073690;28;20191;-71
2022/05/10 03:48:24;;;;;;;8.38;3.42;;;;;;;15.98;85.24;100660.38;5073103;28;20191;-71
2022/05/10 03:50:51;;;;;;;6.80;3.55;;;;;;;16.19;82.21;100702.31;5072821;28;20223;-71
2022/05/10 03:53:18;;;;;;;9.45;4.03;;;;;;;16.50;84.67;100713.69;5072830;28;20626;-71
2022/05/10 03:55:46;;;;;;;15.77;5.80;;;;;;;16.95;79.81;100723.31;5072799;28;20195;-71
2022/05/10 03:58:13;;;;;;;8.07;3.55;;;;;;;16.74;77.60;100708.50;5073014;28;20202;-71
2022/05/10 04:00:40;;;;;;;4.72;3.53;;;;;;;16.71;78.95;100712.84;5073073;28;20211;-71
2022/05/10 04:03:07;;;;;;;8.70;3.95;;;;;;;16.90;79.56;100703.25;5037761;28;20194;-71
2022/05/10 04:05:34;;;;;;;5.07;3.67;;;;;;;17.02;78.00;100711.97;5073066;28;20654;-71
2022/05/10 04:08:01;;;;;;;10.68;4.05;;;;;;;16.81;77.65;100667.44;5073215;28;20612;-71
2022/05/10 04:10:27;;;;;;;9.85;4.47;;;;;;;17.53;74.37;100723.22;5073194;28;20201;-68
2022/05/10 04:12:56;;;;;;;9.25;4.72;;;;;;;17.77;72.59;100728.41;5073429;28;20206;-70
2022/05/10 04:15:23;;;;;;;9.30;4.43;;;;;;;18.17;71.44;100724.72;5073694;28;20203;-70
2022/05/10 04:17:50;;;;;;;8.80;3.97;;;;;;;18.49;69.99;100721.03;5073004;28;20253;-70
2022/05/10 04:20:17;;;;;;;8.25;3.95;;;;;;;18.12;68.82;100721.25;5073076;28;20286;-71
2022/05/10 04:22:43;;;;;;;9.40;3.67;;;;;;;18.49;68.63;100736.78;5073111;28;20236;-69
2022/05/10 04:25:12;;;;;;;6.13;4.18;;;;;;;19.29;65.49;100729.13;5072441;28;20634;-69
2022/05/10 04:27:39;;;;;;;7.22;3.50;;;;;;;18.32;66.48;100708.91;5073215;28;20230;-69
2022/05/10 04:30:09;;;;;;;6.07;3.83;;;;;;;18.32;69.83;100724.66;5073369;28;20210;-69
2022/05/10 04:32:38;;;;;;;10.65;3.78;;;;;;;17.44;73.54;100707.53;5072454;28;20633;-70
2022/05/10 04:35:06;;;;;;;8.55;3.40;;;;;;;18.59;71.38;100704.34;5071163;28;20781;-70
2022/05/10 04:37:33;;;;;;;7.25;3.92;;;;;;;19.18;67.04;100707.34;5073134;28;20536;-69
2022/05/10 04:42:45;;;;;;;10.32;3.75;;;;;;;19.11;67.10;100721.44;5072698;28;20209;-70
2022/05/10 04:45:13;;;;;;;13.20;4.15;;;;;;;19.57;65.57;100734.13;5073201;28;20227;-70
2022/05/10 04:47:40;;;;;;;5.45;3.22;;;;;;;19.37;64.41;100720.28;5072061;28;20203;-69
2022/05/10 04:50:08;;;;;;;3.25;2.90;;;;;;;19.02;63.23;100708.34;5072904;28;20698;-70
2022/05/10 04:52:35;;;;;;;7.18;3.35;;;;;;;18.96;65.16;100732.06;5049816;28;20223;-67
2022/05/10 04:55:02;;;;;;;9.70;3.67;;;;;;;19.21;68.71;100735.34;5072525;28;20659;-72
2022/05/10 04:57:29;;;;;;;6.65;3.28;;;;;;;18.49;63.56;100731.53;5072466;28;20705;-70
2022/05/10 04:59:55;;;;;;;5.05;3.50;;;;;;;17.97;65.40;100744.97;5071460;28;20207;-69
2022/05/10 05:02:24;;;;;;;16.55;3.28;;;;;;;17.84;67.23;100754.63;5072432;28;20199;-69
2022/05/10 05:04:50;;;;;;;8.27;3.40;;;;;;;17.61;69.08;100732.84;5072468;28;20211;-69
2022/05/10 05:07:17;;;;;;;6.10;3.28;;;;;;;17.43;69.23;100721.50;5072403;28;20210;-69
2022/05/10 05:09:44;;;;;;;5.00;3.45;;;;;;;17.17;72.30;100726.78;5064542;28;20685;-69
2022/05/10 05:12:12;;;;;;;8.27;2.85;;;;;;;16.35;76.21;100714.53;5071953;28;20230;-69
2022/05/10 05:14:39;;;;;;;3.38;2.35;;;;;;;16.34;78.50;100746.81;5035457;28;20298;-69
2022/05/10 05:17:06;;;;;;;4.57;2.60;;;;;;;16.28;79.43;100730.22;5072397;28;20207;-69
2022/05/10 05:19:34;;;;;;;4.15;2.50;;;;;;;16.97;76.23;100753.03;5071709;28;20232;-68
2022/05/10 05:22:01;;;;;;;7.47;2.70;;;;;;;17.25;73.27;100752.13;5030807;28;20207;-68
2022/05/10 05:24:27;;;;;;;2.50;2.20;;;;;;;17.57;71.16;100762.59;5061575;28;20198;-69
2022/05/10 05:26:54;;;;;;;3.40;2.60;;;;;;;17.62;70.47;100746.84;5071951;28;20206;-68
2022/05/10 05:29:21;;;;;;;7.63;2.20;;;;;;;17.54;70.15;100751.19;5071752;28;20604;-68
2022/05/10 05:31:49;;;;;;;3.50;3.10;;;;;;;17.62;70.16;100767.84;5070503;28;20215;-69
2022/05/10 05:34:16;;;;;;;5.50;2.60;;;;;;;17.91;67.80;100736.25;5059793;28;20207;-69
2022/05/10 05:37:32;;;;;;;6.38;2.80;;;;;;;18.50;67.91;100765.66;5070632;28;20206;-68
2022/05/10 05:39:31;;;;;;;13.05;3.35;;;;;;;18.85;64.96;100767.19;5071408;28;20305;-68
2022/05/10 05:41:58;;;;;;;4.63;2.95;;;;;;;18.60;65.48;100761.25;5071746;28;20623;-67
2022/05/10 05:44:25;;;;;;;4.65;2.85;;;;;;;18.01;66.56;100765.06;5071418;28;20187;-67
2022/05/10 05:46:52;;;;;;;4.90;2.00;;;;;;;17.78;65.53;100759.03;5071798;28;20210;-68
2022/05/10 05:49:19;;;;;;;8.70;2.90;;;;;;;17.85;66.17;100766.00;5071863;28;20202;-67
2022/05/10 05:51:47;;;;;;;5.15;2.58;;;;;;;18.05;65.48;100760.69;5071558;28;20234;-67
2022/05/10 05:54:14;;;;;;;8.60;3.33;;;;;;;18.13;66.13;100749.25;5071444;28;20207;-67
2022/05/10 05:56:40;;;;;;;3.72;2.20;;;;;;;18.13;67.96;100749.25;5071087;28;20198;-69
2022/05/10 05:59:07;;;;;;;2.72;2.05;;;;;;;18.50;66.31;100746.41;5070980;28;20666;-69
2022/05/10 06:01:34;;;;;;;5.57;2.50;;;;;;;18.79;64.54;100742.75;5071143;28;20600;-68
2022/05/10 06:04:01;;;;;;;4.28;2.17;;;;;;;19.37;63.01;100749.22;5071081;28;20207;-68
2022/05/10 06:06:28;;;;;;;6.10;2.85;;;;;;;19.43;61.45;100717.63;5071078;28;20221;-68
2022/05/10 06:08:56;;;;;;;5.75;2.80;;;;;;;19.89;60.92;100746.91;5070683;28;20205;-68
2022/05/10 06:11:23;;;;;;;14.43;2.70;;;;;;;18.70;61.34;100681.50;5070838;28;20611;-68
2022/05/10 06:13:49;;;;;;;4.97;2.97;;;;;;;18.90;60.58;100740.03;5071157;28;20203;-68
2022/05/10 06:16:16;;;;;;;3.55;2.42;;;;;;;19.17;61.84;100754.66;5070871;28;20653;-67
2022/05/10 06:18:43;;;;;;;3.28;2.55;;;;;;;19.19;62.20;100748.50;5068897;28;20207;-68
2022/05/10 06:21:10;;;;;;;6.22;2.65;;;;;;;19.37;62.86;100743.97;5051749;28;20210;-72
2022/05/10 06:23:37;;;;;;;3.95;2.22;;;;;;;19.31;60.96;100760.66;5051006;28;20222;-69
2022/05/10 06:26:05;;;;;;;2.90;2.20;;;;;;;19.48;60.05;100757.88;5050623;28;20199;-69
2022/05/10 06:28:32;;;;;;;4.22;2.58;;;;;;;19.68;59.77;100762.06;5050856;28;20199;-69
2022/05/10 06:30:59;;;;;;;3.20;1.95;;;;;;;19.87;60.68;100741.63;5050568;28;20196;-69
2022/05/10 06:33:27;;;;;;;4.75;2.08;;;;;;;20.24;58.51;100761.34;5050356;28;20723;-69
2022/05/10 06:35:54;;;;;;;4.05;2.30;;;;;;;20.26;61.35;100754.28;5050421;28;20569;-69
2022/05/10 06:38:27;;;;;;;3.00;2.33;;;;;;;20.13;58.69;100772.91;5050655;28;20259;-69
2022/05/10 06:40:54;;;;;;;5.55;2.25;;;;;;;20.23;58.28;100764.00;5050393;28;20198;-68
2022/05/10 06:43:23;;;;;;;5.72;2.65;;;;;;;20.02;62.32;100733.56;5050590;28;20210;-72
2022/05/10 06:45:50;;;;;;;4.53;2.30;;;;;;;20.32;57.71;100773.59;5050661;28;20199;-68
2022/05/10 06:48:17;;;;;;;4.25;2.35;;;;;;;20.24;58.86;100766.63;5050479;28;20286;-69
2022/05/10 06:50:45;;;;;;;4.47;2.10;;;;;;;19.87;59.20;100751.31;5050139;28;20199;-68
2022/05/10 06:53:13;;;;;;;2.60;2.13;;;;;;;19.58;57.71;100778.84;5050380;28;20266;-69
2022/05/10 06:55:40;;;;;;;3.53;2.00;;;;;;;19.58;58.20;100780.59;5050189;28;20234;-69
2022/05/10 06:58:08;;;;;;;2.80;2.42;;;;;;;19.60;59.41;100776.19;5050336;28;20202;-69
2022/05/10 07:00:39;;;;;;;2.70;2.47;;;;;;;20.21;59.67;100761.41;5050540;28;20199;-69
2022/05/10 07:03:07;;;;;;;5.28;2.40;;;;;;;19.55;60.29;100731.50;5050132;28;20199;-68
2022/05/10 07:05:34;;;;;;;4.35;2.55;;;;;;;19.99;59.78;100781.00;5050190;28;20203;-69
2022/05/10 07:08:01;;;;;;;4.82;2.33;;;;;;;20.08;61.57;100778.22;5050079;28;20206;-69
2022/05/10 07:10:28;;;;;;;3.17;2.55;;;;;;;20.60;59.38;100777.56;5050313;28;20200;-69
2022/05/10 07:12:55;;;;;;;3.13;2.83;;;;;;;20.36;59.59;100778.78;5047783;28;20234;-69
2022/05/10 07:15:22;;;;;;;4.75;2.53;;;;;;;20.58;58.50;100771.47;5050127;28;20235;-69
2022/05/10 07:17:52;;;;;;;3.65;2.90;;;;;;;20.53;59.88;100784.69;5048009;28;20192;-69
2022/05/10 07:20:20;;;;;;;3.50;2.70;;;;;;;20.88;58.12;100785.91;5050069;28;20663;-69
2022/05/10 07:22:48;;;;;;;5.13;3.53;;;;;;;21.33;57.20;100763.22;5051507;28;20249;-69
2022/05/10 07:25:16;;;;;;;12.32;3.45;;;;;;;21.04;58.08;100725.00;5070125;28;20590;-69
2022/05/10 07:27:44;;;;;;;3.33;2.72;;;;;;;21.90;56.38;100796.47;5069910;28;20203;-69
2022/05/10 07:30:13;;;;;;;4.85;2.35;;;;;;;20.81;58.02;100771.09;5070028;28;20293;-69
2022/05/10 07:32:41;;;;;;;2.42;2.15;;;;;;;20.64;58.96;100788.03;5070121;28;20218;-68
2022/05/10 07:35:10;;;;;;;3.88;3.00;;;;;;;20.57;61.98;100773.22;5070081;28;20217;-69
2022/05/10 07:37:38;;;;;;;4.13;2.60;;;;;;;20.90;59.15;100779.75;5069883;28;20691;-69
2022/05/10 07:40:06;;;;;;;2.65;2.45;;;;;;;20.87;61.68;100790.31;5070021;28;20718;-68
2022/05/10 07:42:33;;;;;;;5.22;2.70;;;;;;;21.42;59.96;100794.72;5069977;28;20230;-68
2022/05/10 07:44:59;;;;;;;5.18;2.90;;;;;;;21.48;59.69;100791.94;5069996;28;20210;-68
2022/05/10 07:47:26;;;;;;;6.43;2.50;;;;;;;21.11;62.33;100797.88;5070667;28;20577;-68
2022/05/10 07:49:53;;;;;;;6.00;2.72;;;;;;;21.33;60.53;100774.66;5052414;28;20219;-68
2022/05/10 07:52:21;;;;;;;5.15;2.70;;;;;;;21.59;61.85;100772.38;5050403;28;20227;-69
2022/05/10 07:54:48;;;;;;;3.80;2.60;;;;;;;21.22;61.67;100782.72;5050318;28;20631;-66
2022/05/10 07:57:14;;;;;;;2.80;2.60;;;;;;;21.23;63.83;100797.66;5050254;28;20254;-69
2022/05/10 07:59:41;;;;;;;3.25;2.80;;;;;;;21.13;61.77;100777.63;5051883;28;20253;-69
2022/05/10 08:02:08;;;;;;;4.30;3.00;;;;;;;21.23;62.16;100771.28;5054137;28;20206;-69
2022/05/10 08:04:36;;;;;;;3.35;2.60;;;;;;;21.54;61.46;100762.81;5053862;28;20203;-69
2022/05/10 08:07:02;;;;;;;6.68;2.88;;;;;;;22.15;60.01;100768.63;5054467;28;20195;-68
2022/05/10 08:09:31;;;;;;;3.40;2.90;;;;;;;22.03;60.72;100784.75;5053881;28;20204;-68
2022/05/10 08:12:04;;;;;;;3.05;2.45;;;;;;;21.52;62.31;100786.59;5060083;28;20291;-68
2022/05/10 08:14:30;;;;;;;4.93;3.28;;;;;;;22.40;61.47;100789.25;5023205;28;20204;-68
2022/05/10 08:16:57;;;;;;;7.38;3.13;;;;;;;22.92;58.77;100800.41;5053089;28;20214;-68
2022/05/10 08:19:24;;;;;;;4.32;2.83;;;;;;;22.41;58.78;100785.69;5053264;28;20195;-68
2022/05/10 08:21:55;;;;;;;6.47;3.08;;;;;;;22.85;57.28;100788.22;5052852;28;20624;-68
2022/05/10 08:24:22;;;;;;;4.28;2.42;;;;;;;22.21;58.66;100789.66;5052814;28;20191;-69
2022/05/10 08:26:50;;;;;;;4.60;2.58;;;;;;;22.88;57.53;100782.84;5070068;28;20206;-69
2022/05/10 08:29:17;;;;;;;3.00;2.60;;;;;;;22.80;56.05;100786.56;5072848;28;20285;-69
2022/05/10 08:31:44;;;;;;;3.53;2.72;;;;;;;22.73;55.99;100762.06;5072535;28;20685;-70
2022/05/10 08:34:11;;;;;;;4.18;2.05;;;;;;;22.50;51.12;100780.22;5072531;28;20206;-68
2022/05/10 08:36:38;;;;;;;2.53;2.35;;;;;;;22.68;52.18;100775.41;5072539;28;20211;-68
2022/05/10 08:39:04;;;;;;;6.32;3.08;;;;;;;23.09;52.82;100781.47;5072318;28;20234;-68
2022/05/10 08:41:45;;;;;;;4.47;3.03;;;;;;;23.36;54.01;100787.84;5068486;28;20209;-68
2022/05/10 08:44:16;;;;;;;3.08;2.63;;;;;;;22.75;55.34;100783.19;5068725;28;20198;-68
2022/05/10 08:46:45;;;;;;;3.20;2.60;;;;;;;22.87;52.62;100770.53;5051248;28;20203;-68
2022/05/10 08:49:17;;;;;;;5.20;2.65;;;;;;;23.38;53.38;100789.53;5051526;28;20200;-69
2022/05/10 08:51:44;;;;;;;6.50;3.08;;;;;;;23.39;53.79;100782.47;5061561;28;20206;-69
2022/05/10 08:54:11;;;;;;;8.07;2.63;;;;;;;23.34;50.15;100787.00;5072477;28;20317;-69
2022/05/10 08:56:45;;;;;;;3.75;2.55;;;;;;;23.20;50.38;100769.69;5070813;28;20206;-68
2022/05/10 08:59:24;;;;;;;3.30;2.85;;;;;;;23.75;49.85;100789.44;5071394;28;20661;-68
2022/05/10 09:02:00;;;;;;;3.95;2.30;;;;;;;23.44;49.80;100780.56;5071271;28;20590;-68
2022/05/10 09:04:39;;;;;;;3.33;2.60;;;;;;;23.15;51.47;100779.50;5072341;28;20230;-68
2022/05/10 09:07:16;;;;;;;6.68;2.72;;;;;;;23.20;51.37;100780.28;5072554;28;20191;-68
2022/05/10 09:10:01;;;;;;;2.65;2.40;;;;;;;22.72;52.13;100784.97;5072199;28;20198;-67
2022/05/10 09:12:30;;;;;;;3.90;2.90;;;;;;;23.18;51.92;100787.41;5072369;28;20313;-68
2022/05/10 09:15:01;;;;;;;5.93;2.53;;;;;;;22.79;52.87;100772.50;5072530;28;20199;-68
2022/05/10 09:17:31;;;;;;;3.88;2.55;;;;;;;23.26;52.80;100775.75;5072361;28;20201;-68
2022/05/10 09:19:59;;;;;;;2.70;2.50;;;;;;;23.01;52.67;100781.63;5071860;28;20198;-68
2022/05/10 09:22:42;;;;;;;4.38;2.70;;;;;;;23.22;52.31;100777.63;5071835;28;20230;-68
2022/05/10 09:25:19;;;;;;;2.60;2.25;;;;;;;23.51;51.96;100777.72;5069595;28;20191;-68
2022/05/10 09:27:46;;;;;;;3.13;2.70;;;;;;;23.62;50.58;100773.00;5071650;28;20222;-68
2022/05/10 09:30:28;;;;;;;3.13;2.55;;;;;;;23.71;50.23;100774.56;5071752;28;20256;-68
2022/05/10 09:36:04;;;;;;;5.60;2.58;;;;;;;23.28;51.22;100773.94;5071299;28;20690;-68
2022/05/10 09:38:32;;;;;;;4.20;2.53;;;;;;;23.04;51.40;100756.91;5071164;28;20234;-68
2022/05/10 09:40:59;;;;;;;4.70;2.20;;;;;;;22.85;52.15;100767.06;5071457;28;20212;-68
2022/05/10 09:43:28;;;;;;;6.82;2.42;;;;;;;23.05;51.55;100751.56;5071297;28;20677;-68
2022/05/10 09:46:11;;;;;;;5.03;2.53;;;;;;;23.20;52.09;100753.81;5071446;28;20203;-68
2022/05/10 09:48:39;;;;;;;5.60;2.20;;;;;;;23.65;50.50;100766.78;5071130;28;20230;-68
2022/05/10 09:51:32;;;;;;;3.20;2.33;;;;;;;23.57;50.28;100760.81;5071150;28;20207;-68
2022/05/10 09:53:59;;;;;;;3.17;2.22;;;;;;;23.67;51.24;100759.66;5071321;28;20230;-68
2022/05/10 09:56:33;;;;;;;3.38;2.17;;;;;;;23.54;50.46;100752.97;5071126;28;20256;-68
2022/05/10 09:59:02;;;;;;;3.30;2.65;;;;;;;23.96;48.94;100754.41;5035387;28;20195;-68
2022/05/10 10:01:43;;;;;;;2.63;2.30;;;;;;;23.82;49.85;100750.41;5052088;28;20260;-68
2022/05/10 10:04:22;;;;;;;6.45;2.25;;;;;;;24.22;48.62;100747.50;5070687;28;20198;-68
2022/05/10 10:07:05;;;;;;;4.35;2.60;;;;;;;24.24;47.75;100740.34;5071151;28;20202;-68
2022/05/10 10:09:34;;;;;;;3.55;2.40;;;;;;;24.37;47.65;100747.00;5070707;28;20207;-68
2022/05/10 10:12:01;;;;;;;4.78;2.35;;;;;;;24.46;48.87;100730.81;5070879;28;20202;-68
2022/05/10 10:14:42;;;;;;;5.60;3.22;;;;;;;24.58;52.40;100741.91;5070890;28;20222;-67
2022/05/10 10:17:26;;;;;;;2.90;2.67;;;;;;;24.48;53.06;100740.47;5070882;28;20569;-67
2022/05/10 10:19:58;;;;;;;7.43;3.00;;;;;;;24.96;52.88;100738.03;5035173;28;20641;-67
2022/05/10 10:22:37;;;;;;;5.05;2.83;;;;;;;24.87;52.61;100727.72;5070010;28;20199;-68
2022/05/10 10:25:09;;;;;;;3.58;2.90;;;;;;;24.43;53.72;100730.94;5070301;28;20640;-68
2022/05/10 10:27:42;;;;;;;4.53;3.60;;;;;;;24.87;53.72;100722.41;5070394;28;20202;-68
2022/05/10 10:30:21;;;;;;;9.57;3.70;;;;;;;24.93;54.61;100722.22;5070512;28;20286;-68
2022/05/10 10:32:54;;;;;;;8.30;3.17;;;;;;;24.83;55.24;100725.22;5070278;28;20226;-68
2022/05/10 10:35:32;;;;;;;5.38;3.40;;;;;;;24.47;56.04;100716.66;5070498;28;20210;-68
2022/05/10 10:38:06;;;;;;;3.58;2.97;;;;;;;24.60;55.31;100731.25;5070241;28;20285;-68
2022/05/10 10:40:36;;;;;;;6.07;3.13;;;;;;;25.01;53.13;100728.13;5070433;28;20207;-68
2022/05/10 10:43:14;;;;;;;7.40;2.85;;;;;;;24.52;55.56;100726.19;5070226;28;20586;-74
2022/05/10 10:45:48;;;;;;;2.67;2.30;;;;;;;23.76;55.45;100711.72;5070315;28;20193;-72
2022/05/10 10:48:26;;;;;;;5.88;2.85;;;;;;;24.21;54.40;100706.00;5070244;28;20195;-68
2022/05/10 10:50:54;;;;;;;3.35;2.85;;;;;;;24.22;53.37;100718.34;5070287;28;20248;-68
2022/05/10 10:53:21;;;;;;;2.80;2.45;;;;;;;24.15;53.66;100715.03;5070232;28;20225;-69
2022/05/10 10:56:22;;;;;;;3.53;2.72;;;;;;;24.05;52.12;100701.13;5070194;28;20194;-68
2022/05/10 10:59:00;;;;;;;3.78;2.97;;;;;;;24.29;50.45;100717.25;5034429;28;20226;-68
2022/05/10 11:01:41;;;;;;;5.60;2.80;;;;;;;24.57;51.04;100713.66;5070412;28;20268;-67
2022/05/10 11:04:21;;;;;;;3.38;2.55;;;;;;;23.93;52.14;100709.47;5070195;28;20199;-68
2022/05/10 11:06:51;;;;;;;3.83;2.65;;;;;;;24.30;50.90;100695.09;5052308;28;20206;-67
2022/05/10 11:09:34;;;;;;;4.07;3.15;;;;;;;24.97;50.86;100704.41;5070347;28;20623;-68
2022/05/10 11:12:14;;;;;;;3.53;3.22;;;;;;;25.22;50.19;100707.09;5070075;28;20667;-68
2022/05/10 11:15:04;;;;;;;13.23;2.78;;;;;;;25.26;50.10;100701.59;5034390;28;20279;-68
2022/05/10 11:17:48;;;;;;;6.47;2.67;;;;;;;25.12;50.77;100698.56;5070354;28;20202;-68
2022/05/10 11:20:34;;;;;;;6.40;2.95;;;;;;;24.38;51.59;100690.41;5069999;28;20224;-68
2022/05/10 11:23:05;;;;;;;3.20;2.92;;;;;;;24.68;51.96;100684.97;5069894;28;20675;-68
2022/05/10 11:26:01;;;;;;;5.60;3.10;;;;;;;24.91;51.61;100680.72;5069909;28;20647;-70
2022/05/10 11:28:43;;;;;;;4.78;3.17;;;;;;;24.77;53.02;100667.91;5001825;28;20195;-68
2022/05/10 11:31:15;;;;;;;4.40;2.88;;;;;;;25.25;53.42;100686.63;5069973;28;20651;-69
2022/05/10 11:33:55;;;;;;;3.97;3.60;;;;;;;24.89;53.74;100670.19;5071352;28;20272;-71
2022/05/10 11:36:39;;;;;;;5.03;3.42;;;;;;;24.93;54.53;100670.94;5073625;28;20199;-69
2022/05/10 11:39:34;;;;;;;5.50;3.15;;;;;;;24.27;56.88;100647.47;5073252;28;20230;-69
2022/05/10 11:42:20;;;;;;;14.13;4.00;;;;;;;24.60;55.65;100672.91;5073506;28;20198;-69
2022/05/10 11:45:09;;;;;;;7.35;3.75;;;;;;;24.98;54.03;100645.97;5073640;28;20206;-69
2022/05/10 11:47:55;;;;;;;3.97;3.53;;;;;;;24.94;55.82;100660.25;4991649;28;20655;-70
2022/05/10 11:53:54;;;;;;;6.65;3.90;;;;;;;25.60;53.31;100656.13;4933843;29;20239;-70